sensor_id;sensor_type;location;lat;lon;timestamp;temperature;humidity
2465;DHT22;1244;54.326;10.074;2023-03-24T00:02:03;10.30;99.90
2465;DHT22;1244;54.326;10.074;2023-03-24T00:04:29;10.30;99.90
2465;DHT22;1244;54.326;10.074;2023-03-24T00:06:55;10.40;99.90
2465;DHT22;1244;54.326;10.074;2023-03-24T00:09:21;10.40;99.90
2465;DHT22;1244;54.326;10.074;2023-03-24T00:11:47;10.40;99.90
2465;DHT22;1244;54.326;10.074;2023-03-24T00:14:12;10.40;99.90
2465;DHT22;1244;54.326;10.074;2023-03-24T00:16:39;10.50;99.90
2465;DHT22;1244;54.326;10.074;2023-03-24T00:19:10;10.40;99.90
2465;DHT22;1244;54.326;10.074;2023-03-24T00:21:38;10.40;99.90
2465;DHT22;1244;54.326;10.074;2023-03-24T00:24:04;10.40;99.90
2465;DHT22;1244;54.326;10.074;2023-03-24T00:26:32;10.40;99.90
2465;DHT22;1244;54.326;10.074;2023-03-24T00:28:58;10.40;99.90
2465;DHT22;1244;54.326;10.074;2023-03-24T00:31:24;10.30;99.90
2465;DHT22;1244;54.326;10.074;2023-03-24T00:33:50;10.30;99.90
2465;DHT22;1244;54.326;10.074;2023-03-24T00:36:17;10.30;99.90
2465;DHT22;1244;54.326;10.074;2023-03-24T00:38:45;10.10;99.90
2465;DHT22;1244;54.326;10.074;2023-03-24T00:41:12;10.20;99.90
2465;DHT22;1244;54.326;10.074;2023-03-24T00:43:38;10.20;99.90
2465;DHT22;1244;54.326;10.074;2023-03-24T00:46:08;10.20;99.90
2465;DHT22;1244;54.326;10.074;2023-03-24T00:48:36;10.20;99.90
2465;DHT22;1244;54.326;10.074;2023-03-24T00:51:05;10.20;99.90
2465;DHT22;1244;54.326;10.074;2023-03-24T00:53:33;10.20;99.90
2465;DHT22;1244;54.326;10.074;2023-03-24T00:55:59;10.30;99.90
2465;DHT22;1244;54.326;10.074;2023-03-24T00:58:25;10.20;99.90
2465;DHT22;1244;54.326;10.074;2023-03-24T01:00:53;10.20;99.90
2465;DHT22;1244;54.326;10.074;2023-03-24T01:03:21;10.30;99.90
2465;DHT22;1244;54.326;10.074;2023-03-24T01:05:49;10.20;99.90
2465;DHT22;1244;54.326;10.074;2023-03-24T01:08:16;10.30;99.90
2465;DHT22;1244;54.326;10.074;2023-03-24T01:10:47;10.30;99.90
2465;DHT22;1244;54.326;10.074;2023-03-24T01:13:28;10.30;99.90
2465;DHT22;1244;54.326;10.074;2023-03-24T01:15:54;10.30;99.90
2465;DHT22;1244;54.326;10.074;2023-03-24T01:18:20;10.40;99.90
2465;DHT22;1244;54.326;10.074;2023-03-24T01:20:48;10.30;99.90
2465;DHT22;1244;54.326;10.074;2023-03-24T01:23:17;10.30;99.90
2465;DHT22;1244;54.326;10.074;2023-03-24T01:25:44;10.20;99.90
2465;DHT22;1244;54.326;10.074;2023-03-24T01:28:13;10.20;99.90
2465;DHT22;1244;54.326;10.074;2023-03-24T01:30:39;10.20;99.90
2465;DHT22;1244;54.326;10.074;2023-03-24T01:33:05;10.30;99.90
2465;DHT22;1244;54.326;10.074;2023-03-24T01:35:31;10.20;99.90
2465;DHT22;1244;54.326;10.074;2023-03-24T01:37:57;10.20;99.90
2465;DHT22;1244;54.326;10.074;2023-03-24T01:40:27;10.10;99.90
2465;DHT22;1244;54.326;10.074;2023-03-24T01:42:53;10.20;99.90
2465;DHT22;1244;54.326;10.074;2023-03-24T01:48:16;10.10;99.90
2465;DHT22;1244;54.326;10.074;2023-03-24T01:51:11;10.10;99.90
2465;DHT22;1244;54.326;10.074;2023-03-24T01:53:39;10.20;99.90
2465;DHT22;1244;54.326;10.074;2023-03-24T01:56:06;10.20;99.90
2465;DHT22;1244;54.326;10.074;2023-03-24T01:58:34;10.10;99.90
2465;DHT22;1244;54.326;10.074;2023-03-24T02:01:00;10.10;99.90
2465;DHT22;1244;54.326;10.074;2023-03-24T02:03:26;10.20;99.90
2465;DHT22;1244;54.326;10.074;2023-03-24T02:05:55;10.10;99.90
2465;DHT22;1244;54.326;10.074;2023-03-24T02:11:01;10.20;99.90
2465;DHT22;1244;54.326;10.074;2023-03-24T02:13:27;10.00;99.90
2465;DHT22;1244;54.326;10.074;2023-03-24T02:22:21;10.00;99.90
2465;DHT22;1244;54.326;10.074;2023-03-24T02:25:16;10.10;99.90
2465;DHT22;1244;54.326;10.074;2023-03-24T02:39:28;9.90;99.90
2465;DHT22;1244;54.326;10.074;2023-03-24T02:42:12;10.10;99.90
2465;DHT22;1244;54.326;10.074;2023-03-24T02:47:59;9.90;99.90
2465;DHT22;1244;54.326;10.074;2023-03-24T02:51:31;10.00;99.90
2465;DHT22;1244;54.326;10.074;2023-03-24T02:53:50;10.00;99.90
2465;DHT22;1244;54.326;10.074;2023-03-24T02:56:31;10.00;99.90
2465;DHT22;1244;54.326;10.074;2023-03-24T02:59:04;10.00;99.90
2465;DHT22;1244;54.326;10.074;2023-03-24T03:01:50;10.00;99.90
2465;DHT22;1244;54.326;10.074;2023-03-24T03:04:26;10.00;99.90
2465;DHT22;1244;54.326;10.074;2023-03-24T03:06:56;10.00;99.90
2465;DHT22;1244;54.326;10.074;2023-03-24T03:09:24;9.90;99.90
2465;DHT22;1244;54.326;10.074;2023-03-24T03:11:53;9.90;99.90
2465;DHT22;1244;54.326;10.074;2023-03-24T03:14:25;10.00;99.90
2465;DHT22;1244;54.326;10.074;2023-03-24T03:17:17;9.90;99.90
2465;DHT22;1244;54.326;10.074;2023-03-24T03:19:49;10.00;99.90
2465;DHT22;1244;54.326;10.074;2023-03-24T03:22:23;9.80;99.90
2465;DHT22;1244;54.326;10.074;2023-03-24T03:24:52;9.90;99.90
2465;DHT22;1244;54.326;10.074;2023-03-24T03:27:23;9.80;99.90
2465;DHT22;1244;54.326;10.074;2023-03-24T03:29:58;9.90;99.90
2465;DHT22;1244;54.326;10.074;2023-03-24T03:32:29;9.80;99.90
2465;DHT22;1244;54.326;10.074;2023-03-24T03:35:13;10.00;99.90
2465;DHT22;1244;54.326;10.074;2023-03-24T03:38:24;9.90;99.90
2465;DHT22;1244;54.326;10.074;2023-03-24T03:40:52;9.90;99.90
2465;DHT22;1244;54.326;10.074;2023-03-24T03:43:20;10.00;99.90
2465;DHT22;1244;54.326;10.074;2023-03-24T03:45:46;9.90;99.90
2465;DHT22;1244;54.326;10.074;2023-03-24T03:48:12;9.80;99.90
2465;DHT22;1244;54.326;10.074;2023-03-24T03:50:38;9.80;99.90
2465;DHT22;1244;54.326;10.074;2023-03-24T03:53:05;9.90;99.90
2465;DHT22;1244;54.326;10.074;2023-03-24T03:55:31;9.80;99.90
2465;DHT22;1244;54.326;10.074;2023-03-24T03:57:58;10.00;99.90
2465;DHT22;1244;54.326;10.074;2023-03-24T04:00:24;9.90;99.90
2465;DHT22;1244;54.326;10.074;2023-03-24T04:05:40;9.80;99.90
2465;DHT22;1244;54.326;10.074;2023-03-24T04:08:20;9.80;99.90
2465;DHT22;1244;54.326;10.074;2023-03-24T04:14:28;9.80;99.90
2465;DHT22;1244;54.326;10.074;2023-03-24T04:25:12;9.80;99.90
2465;DHT22;1244;54.326;10.074;2023-03-24T04:27:49;9.90;99.90
2465;DHT22;1244;54.326;10.074;2023-03-24T04:30:44;9.80;99.90
2465;DHT22;1244;54.326;10.074;2023-03-24T04:33:15;10.00;99.90
2465;DHT22;1244;54.326;10.074;2023-03-24T04:35:46;9.90;99.90
2465;DHT22;1244;54.326;10.074;2023-03-24T04:38:17;10.00;99.90
2465;DHT22;1244;54.326;10.074;2023-03-24T04:40:45;9.90;99.90
2465;DHT22;1244;54.326;10.074;2023-03-24T04:43:15;9.90;99.90
2465;DHT22;1244;54.326;10.074;2023-03-24T04:45:42;10.00;99.90
2465;DHT22;1244;54.326;10.074;2023-03-24T04:48:16;9.90;99.90
2465;DHT22;1244;54.326;10.074;2023-03-24T04:50:54;9.90;99.90
2465;DHT22;1244;54.326;10.074;2023-03-24T04:53:20;10.00;99.90
2465;DHT22;1244;54.326;10.074;2023-03-24T04:58:15;10.00;99.90
2465;DHT22;1244;54.326;10.074;2023-03-24T05:00:42;10.00;99.90
2465;DHT22;1244;54.326;10.074;2023-03-24T05:03:12;10.00;99.90
2465;DHT22;1244;54.326;10.074;2023-03-24T05:05:41;10.10;99.90
2465;DHT22;1244;54.326;10.074;2023-03-24T05:08:07;10.00;99.90
2465;DHT22;1244;54.326;10.074;2023-03-24T05:10:34;10.00;99.90
2465;DHT22;1244;54.326;10.074;2023-03-24T05:13:00;10.10;99.90
2465;DHT22;1244;54.326;10.074;2023-03-24T05:15:26;10.00;99.90
2465;DHT22;1244;54.326;10.074;2023-03-24T05:17:52;10.10;99.90
2465;DHT22;1244;54.326;10.074;2023-03-24T05:20:17;10.10;99.90
2465;DHT22;1244;54.326;10.074;2023-03-24T05:22:43;10.10;99.90
2465;DHT22;1244;54.326;10.074;2023-03-24T05:25:09;10.00;99.90
2465;DHT22;1244;54.326;10.074;2023-03-24T05:27:35;10.10;99.90
2465;DHT22;1244;54.326;10.074;2023-03-24T05:30:00;10.00;99.90
2465;DHT22;1244;54.326;10.074;2023-03-24T05:32:26;10.10;99.90
2465;DHT22;1244;54.326;10.074;2023-03-24T05:34:51;10.20;99.90
2465;DHT22;1244;54.326;10.074;2023-03-24T05:37:17;10.10;99.90
2465;DHT22;1244;54.326;10.074;2023-03-24T05:39:43;10.10;99.90
2465;DHT22;1244;54.326;10.074;2023-03-24T05:42:08;10.20;99.90
2465;DHT22;1244;54.326;10.074;2023-03-24T05:44:34;10.20;99.90
2465;DHT22;1244;54.326;10.074;2023-03-24T05:47:01;10.20;99.90
2465;DHT22;1244;54.326;10.074;2023-03-24T05:49:27;10.20;99.90
2465;DHT22;1244;54.326;10.074;2023-03-24T05:51:52;10.20;99.90
2465;DHT22;1244;54.326;10.074;2023-03-24T05:54:18;10.30;99.90
2465;DHT22;1244;54.326;10.074;2023-03-24T05:56:44;10.30;99.90
2465;DHT22;1244;54.326;10.074;2023-03-24T05:59:10;10.20;99.90
2465;DHT22;1244;54.326;10.074;2023-03-24T06:01:36;10.30;99.90
2465;DHT22;1244;54.326;10.074;2023-03-24T06:04:01;10.40;99.90
2465;DHT22;1244;54.326;10.074;2023-03-24T06:06:27;10.30;99.90
2465;DHT22;1244;54.326;10.074;2023-03-24T06:08:52;10.30;99.90
2465;DHT22;1244;54.326;10.074;2023-03-24T06:11:19;10.40;99.90
2465;DHT22;1244;54.326;10.074;2023-03-24T06:13:45;10.40;99.90
2465;DHT22;1244;54.326;10.074;2023-03-24T06:16:10;10.40;99.90
2465;DHT22;1244;54.326;10.074;2023-03-24T06:18:36;10.50;99.90
2465;DHT22;1244;54.326;10.074;2023-03-24T06:21:05;10.50;99.90
2465;DHT22;1244;54.326;10.074;2023-03-24T06:23:31;10.50;99.90
2465;DHT22;1244;54.326;10.074;2023-03-24T06:25:58;10.50;99.90
2465;DHT22;1244;54.326;10.074;2023-03-24T06:28:25;10.50;99.90
2465;DHT22;1244;54.326;10.074;2023-03-24T06:30:55;10.40;99.90
2465;DHT22;1244;54.326;10.074;2023-03-24T06:33:21;10.50;99.90
2465;DHT22;1244;54.326;10.074;2023-03-24T06:35:53;10.50;99.90
2465;DHT22;1244;54.326;10.074;2023-03-24T06:38:18;10.60;99.90
2465;DHT22;1244;54.326;10.074;2023-03-24T06:40:44;10.60;99.90
2465;DHT22;1244;54.326;10.074;2023-03-24T06:43:10;10.70;99.90
2465;DHT22;1244;54.326;10.074;2023-03-24T06:45:36;10.60;99.90
2465;DHT22;1244;54.326;10.074;2023-03-24T06:48:03;10.80;99.90
2465;DHT22;1244;54.326;10.074;2023-03-24T06:50:29;10.80;99.90
2465;DHT22;1244;54.326;10.074;2023-03-24T06:52:58;10.80;99.90
2465;DHT22;1244;54.326;10.074;2023-03-24T06:55:24;10.80;99.90
2465;DHT22;1244;54.326;10.074;2023-03-24T06:57:49;10.80;99.90
2465;DHT22;1244;54.326;10.074;2023-03-24T07:00:15;10.90;99.90
2465;DHT22;1244;54.326;10.074;2023-03-24T07:02:41;10.90;99.90
2465;DHT22;1244;54.326;10.074;2023-03-24T07:05:07;10.90;99.90
2465;DHT22;1244;54.326;10.074;2023-03-24T07:07:33;10.70;99.90
2465;DHT22;1244;54.326;10.074;2023-03-24T07:10:00;10.50;99.90
2465;DHT22;1244;54.326;10.074;2023-03-24T07:12:26;10.30;99.90
2465;DHT22;1244;54.326;10.074;2023-03-24T07:14:51;10.10;99.90
2465;DHT22;1244;54.326;10.074;2023-03-24T07:17:17;10.10;99.90
2465;DHT22;1244;54.326;10.074;2023-03-24T07:19:42;10.00;99.90
2465;DHT22;1244;54.326;10.074;2023-03-24T07:22:10;10.00;99.90
2465;DHT22;1244;54.326;10.074;2023-03-24T07:24:35;9.90;99.90
2465;DHT22;1244;54.326;10.074;2023-03-24T07:27:01;10.00;99.90
2465;DHT22;1244;54.326;10.074;2023-03-24T07:29:27;10.00;99.90
2465;DHT22;1244;54.326;10.074;2023-03-24T07:31:52;10.00;99.90
2465;DHT22;1244;54.326;10.074;2023-03-24T07:34:23;10.00;99.90
2465;DHT22;1244;54.326;10.074;2023-03-24T07:36:49;10.00;99.90
2465;DHT22;1244;54.326;10.074;2023-03-24T07:39:14;10.00;99.90
2465;DHT22;1244;54.326;10.074;2023-03-24T07:41:40;10.00;99.90
2465;DHT22;1244;54.326;10.074;2023-03-24T07:44:06;9.90;99.90
2465;DHT22;1244;54.326;10.074;2023-03-24T07:46:32;10.10;99.90
2465;DHT22;1244;54.326;10.074;2023-03-24T07:48:57;10.00;99.90
2465;DHT22;1244;54.326;10.074;2023-03-24T07:51:22;10.20;99.90
2465;DHT22;1244;54.326;10.074;2023-03-24T07:53:48;10.30;99.90
2465;DHT22;1244;54.326;10.074;2023-03-24T07:56:14;10.40;99.90
2465;DHT22;1244;54.326;10.074;2023-03-24T07:58:40;10.50;99.90
2465;DHT22;1244;54.326;10.074;2023-03-24T08:01:06;10.50;99.90
2465;DHT22;1244;54.326;10.074;2023-03-24T08:03:35;10.70;99.90
2465;DHT22;1244;54.326;10.074;2023-03-24T08:06:01;10.60;99.90
2465;DHT22;1244;54.326;10.074;2023-03-24T08:08:26;10.60;99.90
2465;DHT22;1244;54.326;10.074;2023-03-24T08:10:52;10.70;99.90
2465;DHT22;1244;54.326;10.074;2023-03-24T08:13:17;10.90;99.90
2465;DHT22;1244;54.326;10.074;2023-03-24T08:15:43;11.00;99.90
2465;DHT22;1244;54.326;10.074;2023-03-24T08:18:09;11.10;99.90
2465;DHT22;1244;54.326;10.074;2023-03-24T08:20:34;11.10;99.90
2465;DHT22;1244;54.326;10.074;2023-03-24T08:23:01;11.20;99.90
2465;DHT22;1244;54.326;10.074;2023-03-24T08:25:29;11.00;99.90
2465;DHT22;1244;54.326;10.074;2023-03-24T08:27:55;10.90;99.90
2465;DHT22;1244;54.326;10.074;2023-03-24T08:30:23;10.80;99.90
2465;DHT22;1244;54.326;10.074;2023-03-24T08:32:54;10.90;99.90
2465;DHT22;1244;54.326;10.074;2023-03-24T08:35:23;11.10;99.90
2465;DHT22;1244;54.326;10.074;2023-03-24T08:37:49;11.00;99.90
2465;DHT22;1244;54.326;10.074;2023-03-24T08:40:18;11.00;99.90
2465;DHT22;1244;54.326;10.074;2023-03-24T08:42:52;10.90;99.90
2465;DHT22;1244;54.326;10.074;2023-03-24T08:45:19;10.90;99.90
2465;DHT22;1244;54.326;10.074;2023-03-24T08:47:47;10.90;99.90
2465;DHT22;1244;54.326;10.074;2023-03-24T08:50:13;10.70;99.90
2465;DHT22;1244;54.326;10.074;2023-03-24T08:52:39;10.60;99.90
2465;DHT22;1244;54.326;10.074;2023-03-24T08:55:07;10.50;99.90
2465;DHT22;1244;54.326;10.074;2023-03-24T08:57:34;10.40;99.90
2465;DHT22;1244;54.326;10.074;2023-03-24T09:00:00;10.30;99.90
2465;DHT22;1244;54.326;10.074;2023-03-24T09:02:26;10.30;99.90
2465;DHT22;1244;54.326;10.074;2023-03-24T09:04:51;10.30;99.90
2465;DHT22;1244;54.326;10.074;2023-03-24T09:07:19;10.20;99.90
2465;DHT22;1244;54.326;10.074;2023-03-24T09:09:44;10.30;99.90
2465;DHT22;1244;54.326;10.074;2023-03-24T09:12:10;10.20;99.90
2465;DHT22;1244;54.326;10.074;2023-03-24T09:14:35;10.40;99.90
2465;DHT22;1244;54.326;10.074;2023-03-24T09:17:01;10.40;99.90
2465;DHT22;1244;54.326;10.074;2023-03-24T09:19:27;10.30;99.90
2465;DHT22;1244;54.326;10.074;2023-03-24T09:21:53;10.30;99.90
2465;DHT22;1244;54.326;10.074;2023-03-24T09:24:18;10.30;99.90
2465;DHT22;1244;54.326;10.074;2023-03-24T09:26:44;10.30;99.90
2465;DHT22;1244;54.326;10.074;2023-03-24T09:29:09;10.30;99.90
2465;DHT22;1244;54.326;10.074;2023-03-24T09:31:35;10.30;99.90
2465;DHT22;1244;54.326;10.074;2023-03-24T09:34:00;10.50;99.90
2465;DHT22;1244;54.326;10.074;2023-03-24T09:36:27;10.60;99.90
2465;DHT22;1244;54.326;10.074;2023-03-24T09:38:53;10.90;99.90
2465;DHT22;1244;54.326;10.074;2023-03-24T09:41:29;11.00;99.90
2465;DHT22;1244;54.326;10.074;2023-03-24T09:44:03;11.00;99.90
2465;DHT22;1244;54.326;10.074;2023-03-24T09:46:43;10.90;99.90
2465;DHT22;1244;54.326;10.074;2023-03-24T09:49:15;10.70;99.90
2465;DHT22;1244;54.326;10.074;2023-03-24T09:51:43;10.70;99.90
2465;DHT22;1244;54.326;10.074;2023-03-24T09:54:19;10.70;99.90
2465;DHT22;1244;54.326;10.074;2023-03-24T09:56:47;10.60;99.90
2465;DHT22;1244;54.326;10.074;2023-03-24T09:59:20;10.60;99.90
2465;DHT22;1244;54.326;10.074;2023-03-24T10:01:53;10.80;99.90
2465;DHT22;1244;54.326;10.074;2023-03-24T10:04:21;10.70;99.90
2465;DHT22;1244;54.326;10.074;2023-03-24T10:06:47;10.60;99.90
2465;DHT22;1244;54.326;10.074;2023-03-24T10:09:30;10.60;99.90
2465;DHT22;1244;54.326;10.074;2023-03-24T10:14:54;10.70;99.90
2465;DHT22;1244;54.326;10.074;2023-03-24T10:17:37;10.70;99.90
2465;DHT22;1244;54.326;10.074;2023-03-24T10:22:59;10.70;99.90
2465;DHT22;1244;54.326;10.074;2023-03-24T10:25:50;10.70;99.90
2465;DHT22;1244;54.326;10.074;2023-03-24T10:28:37;10.70;99.90
2465;DHT22;1244;54.326;10.074;2023-03-24T10:31:10;10.80;99.90
2465;DHT22;1244;54.326;10.074;2023-03-24T10:33:39;10.90;99.90
2465;DHT22;1244;54.326;10.074;2023-03-24T10:36:17;11.10;99.90
2465;DHT22;1244;54.326;10.074;2023-03-24T10:38:44;11.30;99.90
2465;DHT22;1244;54.326;10.074;2023-03-24T10:41:20;11.40;99.90
2465;DHT22;1244;54.326;10.074;2023-03-24T10:43:49;11.70;99.90
2465;DHT22;1244;54.326;10.074;2023-03-24T10:46:17;11.60;99.90
2465;DHT22;1244;54.326;10.074;2023-03-24T10:48:46;11.90;99.90
2465;DHT22;1244;54.326;10.074;2023-03-24T10:51:17;11.80;99.90
2465;DHT22;1244;54.326;10.074;2023-03-24T10:53:44;11.90;99.90
2465;DHT22;1244;54.326;10.074;2023-03-24T10:56:43;12.00;99.90
2465;DHT22;1244;54.326;10.074;2023-03-24T11:01:44;12.60;99.90
2465;DHT22;1244;54.326;10.074;2023-03-24T11:04:16;12.70;99.90
2465;DHT22;1244;54.326;10.074;2023-03-24T11:07:05;12.80;99.90
2465;DHT22;1244;54.326;10.074;2023-03-24T11:09:42;12.10;99.90
2465;DHT22;1244;54.326;10.074;2023-03-24T11:12:26;11.60;99.90
2465;DHT22;1244;54.326;10.074;2023-03-24T11:15:14;11.40;99.90
2465;DHT22;1244;54.326;10.074;2023-03-24T11:17:46;12.10;99.90
2465;DHT22;1244;54.326;10.074;2023-03-24T11:20:17;12.30;99.90
2465;DHT22;1244;54.326;10.074;2023-03-24T11:22:55;12.20;99.90
2465;DHT22;1244;54.326;10.074;2023-03-24T11:25:28;13.00;99.90
2465;DHT22;1244;54.326;10.074;2023-03-24T11:28:01;13.60;99.90
2465;DHT22;1244;54.326;10.074;2023-03-24T11:30:32;13.60;99.90
2465;DHT22;1244;54.326;10.074;2023-03-24T11:32:59;14.00;99.90
2465;DHT22;1244;54.326;10.074;2023-03-24T11:35:24;15.00;99.90
2465;DHT22;1244;54.326;10.074;2023-03-24T11:37:50;15.70;99.90
2465;DHT22;1244;54.326;10.074;2023-03-24T11:40:18;16.90;99.90
2465;DHT22;1244;54.326;10.074;2023-03-24T11:45:42;15.20;99.90
2465;DHT22;1244;54.326;10.074;2023-03-24T11:48:32;16.50;99.90
2465;DHT22;1244;54.326;10.074;2023-03-24T11:53:32;14.50;99.90
2465;DHT22;1244;54.326;10.074;2023-03-24T11:56:10;14.10;99.90
2465;DHT22;1244;54.326;10.074;2023-03-24T11:58:47;13.50;99.90
2465;DHT22;1244;54.326;10.074;2023-03-24T12:04:04;15.50;99.90
2465;DHT22;1244;54.326;10.074;2023-03-24T12:12:11;14.80;99.90
2465;DHT22;1244;54.326;10.074;2023-03-24T12:17:40;17.10;99.90
2465;DHT22;1244;54.326;10.074;2023-03-24T12:20:21;16.80;99.90
2465;DHT22;1244;54.326;10.074;2023-03-24T12:28:03;17.30;99.90
2465;DHT22;1244;54.326;10.074;2023-03-24T12:30:50;16.80;99.90
2465;DHT22;1244;54.326;10.074;2023-03-24T12:33:35;18.30;99.90
2465;DHT22;1244;54.326;10.074;2023-03-24T12:36:11;17.40;99.90
2465;DHT22;1244;54.326;10.074;2023-03-24T12:41:34;15.70;99.90
2465;DHT22;1244;54.326;10.074;2023-03-24T12:47:17;15.10;99.90
2465;DHT22;1244;54.326;10.074;2023-03-24T12:49:59;15.10;99.90
2465;DHT22;1244;54.326;10.074;2023-03-24T12:52:33;14.90;99.90
2465;DHT22;1244;54.326;10.074;2023-03-24T12:55:12;14.60;99.90
2465;DHT22;1244;54.326;10.074;2023-03-24T12:57:47;14.20;99.90
2465;DHT22;1244;54.326;10.074;2023-03-24T13:00:18;15.70;99.90
2465;DHT22;1244;54.326;10.074;2023-03-24T13:02:50;16.60;99.90
2465;DHT22;1244;54.326;10.074;2023-03-24T13:05:20;17.30;99.90
2465;DHT22;1244;54.326;10.074;2023-03-24T13:07:49;16.30;99.90
2465;DHT22;1244;54.326;10.074;2023-03-24T13:10:25;16.60;99.90
2465;DHT22;1244;54.326;10.074;2023-03-24T13:12:58;16.20;99.90
2465;DHT22;1244;54.326;10.074;2023-03-24T13:15:42;15.50;99.90
2465;DHT22;1244;54.326;10.074;2023-03-24T13:18:15;15.10;99.90
2465;DHT22;1244;54.326;10.074;2023-03-24T13:23:42;13.60;99.90
2465;DHT22;1244;54.326;10.074;2023-03-24T13:31:15;17.30;99.90
2465;DHT22;1244;54.326;10.074;2023-03-24T13:33:42;17.20;99.90
2465;DHT22;1244;54.326;10.074;2023-03-24T13:41:22;17.90;99.90
2465;DHT22;1244;54.326;10.074;2023-03-24T13:43:58;18.40;99.90
2465;DHT22;1244;54.326;10.074;2023-03-24T13:46:24;18.30;99.90
2465;DHT22;1244;54.326;10.074;2023-03-24T13:48:53;17.60;99.90
2465;DHT22;1244;54.326;10.074;2023-03-24T13:53:52;17.30;99.90
2465;DHT22;1244;54.326;10.074;2023-03-24T14:20:09;16.00;99.90
2465;DHT22;1244;54.326;10.074;2023-03-24T14:22:34;15.80;99.90
2465;DHT22;1244;54.326;10.074;2023-03-24T14:28:10;17.40;99.90
2465;DHT22;1244;54.326;10.074;2023-03-24T14:30:33;16.90;99.90
2465;DHT22;1244;54.326;10.074;2023-03-24T14:33:03;16.90;99.90
2465;DHT22;1244;54.326;10.074;2023-03-24T14:35:39;16.70;99.90
2465;DHT22;1244;54.326;10.074;2023-03-24T14:40:47;16.10;99.90
2465;DHT22;1244;54.326;10.074;2023-03-24T14:43:28;15.80;99.90
2465;DHT22;1244;54.326;10.074;2023-03-24T14:49:05;14.90;99.90
2465;DHT22;1244;54.326;10.074;2023-03-24T17:08:45;12.10;99.90
2465;DHT22;1244;54.326;10.074;2023-03-24T17:11:10;12.00;99.90
2465;DHT22;1244;54.326;10.074;2023-03-24T17:13:36;12.00;99.90
2465;DHT22;1244;54.326;10.074;2023-03-24T17:16:02;12.00;99.90
2465;DHT22;1244;54.326;10.074;2023-03-24T17:18:27;12.20;99.90
2465;DHT22;1244;54.326;10.074;2023-03-24T17:20:53;12.00;99.90
2465;DHT22;1244;54.326;10.074;2023-03-24T17:23:18;11.90;99.90
2465;DHT22;1244;54.326;10.074;2023-03-24T17:25:46;11.70;99.90
2465;DHT22;1244;54.326;10.074;2023-03-24T17:28:14;11.70;99.90
2465;DHT22;1244;54.326;10.074;2023-03-24T17:30:40;11.60;99.90
2465;DHT22;1244;54.326;10.074;2023-03-24T17:33:06;11.60;99.90
2465;DHT22;1244;54.326;10.074;2023-03-24T17:35:31;11.50;99.90
2465;DHT22;1244;54.326;10.074;2023-03-24T17:37:57;11.50;99.90
2465;DHT22;1244;54.326;10.074;2023-03-24T17:40:23;11.50;99.90
2465;DHT22;1244;54.326;10.074;2023-03-24T17:42:48;11.50;99.90
2465;DHT22;1244;54.326;10.074;2023-03-24T17:45:17;11.40;99.90
2465;DHT22;1244;54.326;10.074;2023-03-24T17:47:43;11.40;99.90
2465;DHT22;1244;54.326;10.074;2023-03-24T17:52:42;11.20;99.90
2465;DHT22;1244;54.326;10.074;2023-03-24T17:55:09;11.20;99.90
2465;DHT22;1244;54.326;10.074;2023-03-24T18:02:30;10.80;99.90
2465;DHT22;1244;54.326;10.074;2023-03-24T18:04:56;10.90;99.90
2465;DHT22;1244;54.326;10.074;2023-03-24T18:07:23;10.90;99.90
2465;DHT22;1244;54.326;10.074;2023-03-24T18:09:49;10.90;99.90
2465;DHT22;1244;54.326;10.074;2023-03-24T18:12:16;10.90;99.90
2465;DHT22;1244;54.326;10.074;2023-03-24T18:14:42;10.80;99.90
2465;DHT22;1244;54.326;10.074;2023-03-24T18:17:09;10.70;99.90
2465;DHT22;1244;54.326;10.074;2023-03-24T18:19:34;10.70;99.90
2465;DHT22;1244;54.326;10.074;2023-03-24T18:22:00;10.70;99.90
2465;DHT22;1244;54.326;10.074;2023-03-24T18:24:26;10.70;99.90
2465;DHT22;1244;54.326;10.074;2023-03-24T18:26:51;10.70;99.90
2465;DHT22;1244;54.326;10.074;2023-03-24T18:29:17;10.80;99.90
2465;DHT22;1244;54.326;10.074;2023-03-24T18:31:46;10.80;99.90
2465;DHT22;1244;54.326;10.074;2023-03-24T18:34:12;10.70;99.90
2465;DHT22;1244;54.326;10.074;2023-03-24T18:36:37;10.80;99.90
2465;DHT22;1244;54.326;10.074;2023-03-24T18:39:06;10.70;99.90
2465;DHT22;1244;54.326;10.074;2023-03-24T18:41:33;10.60;99.90
2465;DHT22;1244;54.326;10.074;2023-03-24T18:44:03;10.60;99.90
2465;DHT22;1244;54.326;10.074;2023-03-24T18:46:29;10.70;99.90
2465;DHT22;1244;54.326;10.074;2023-03-24T18:48:55;10.60;99.90
2465;DHT22;1244;54.326;10.074;2023-03-24T18:51:21;10.60;99.90
2465;DHT22;1244;54.326;10.074;2023-03-24T18:53:48;10.40;99.90
2465;DHT22;1244;54.326;10.074;2023-03-24T18:56:14;10.40;99.90
2465;DHT22;1244;54.326;10.074;2023-03-24T18:58:39;10.50;99.90
2465;DHT22;1244;54.326;10.074;2023-03-24T19:01:09;10.40;99.90
2465;DHT22;1244;54.326;10.074;2023-03-24T19:13:25;10.00;99.90
2465;DHT22;1244;54.326;10.074;2023-03-24T19:15:51;10.20;99.90
2465;DHT22;1244;54.326;10.074;2023-03-24T19:25:43;10.10;99.90
2465;DHT22;1244;54.326;10.074;2023-03-24T19:28:08;10.00;99.90
2465;DHT22;1244;54.326;10.074;2023-03-24T19:30:37;9.90;99.90
2465;DHT22;1244;54.326;10.074;2023-03-24T19:33:03;9.80;99.90
2465;DHT22;1244;54.326;10.074;2023-03-24T19:40:21;9.90;99.90
2465;DHT22;1244;54.326;10.074;2023-03-24T19:42:49;9.90;99.90
2465;DHT22;1244;54.326;10.074;2023-03-24T19:45:16;9.80;99.90
2465;DHT22;1244;54.326;10.074;2023-03-24T19:55:04;9.70;99.90
2465;DHT22;1244;54.326;10.074;2023-03-24T19:57:33;9.80;99.90
2465;DHT22;1244;54.326;10.074;2023-03-24T19:59:58;9.70;99.90
2465;DHT22;1244;54.326;10.074;2023-03-24T20:02:24;9.90;99.90
2465;DHT22;1244;54.326;10.074;2023-03-24T20:04:50;9.70;99.90
2465;DHT22;1244;54.326;10.074;2023-03-24T20:21:55;9.70;99.90
2465;DHT22;1244;54.326;10.074;2023-03-24T20:24:21;9.70;99.90
2465;DHT22;1244;54.326;10.074;2023-03-24T20:26:47;9.70;99.90
2465;DHT22;1244;54.326;10.074;2023-03-24T20:31:39;9.50;99.90
2465;DHT22;1244;54.326;10.074;2023-03-24T20:34:08;9.70;99.90
2465;DHT22;1244;54.326;10.074;2023-03-24T20:36:34;9.60;99.90
2465;DHT22;1244;54.326;10.074;2023-03-24T20:39:03;9.60;99.90
2465;DHT22;1244;54.326;10.074;2023-03-24T20:41:30;9.70;99.90
2465;DHT22;1244;54.326;10.074;2023-03-24T20:43:56;9.70;99.90
2465;DHT22;1244;54.326;10.074;2023-03-24T20:46:21;9.60;99.90
2465;DHT22;1244;54.326;10.074;2023-03-24T20:48:47;9.60;99.90
2465;DHT22;1244;54.326;10.074;2023-03-24T20:53:42;9.70;99.90
2465;DHT22;1244;54.326;10.074;2023-03-24T21:15:57;9.50;99.90
2465;DHT22;1244;54.326;10.074;2023-03-24T21:18:23;9.60;99.90
2465;DHT22;1244;54.326;10.074;2023-03-24T21:23:19;9.50;99.90
2465;DHT22;1244;54.326;10.074;2023-03-24T21:25:51;9.60;99.90
2465;DHT22;1244;54.326;10.074;2023-03-24T21:57:45;9.40;99.90
2465;DHT22;1244;54.326;10.074;2023-03-24T22:00:17;9.50;99.90
2465;DHT22;1244;54.326;10.074;2023-03-24T22:02:45;9.50;99.90
2465;DHT22;1244;54.326;10.074;2023-03-24T22:54:19;9.00;99.90
2465;DHT22;1244;54.326;10.074;2023-03-24T23:04:02;8.80;99.90
2465;DHT22;1244;54.326;10.074;2023-03-24T23:06:28;9.20;99.90
2465;DHT22;1244;54.326;10.074;2023-03-24T23:23:40;9.00;99.90
2465;DHT22;1244;54.326;10.074;2023-03-24T23:50:37;9.50;99.90
2465;DHT22;1244;54.326;10.074;2023-03-24T23:53:02;9.00;99.90